地図

経路データ

SID SEASON NUMBER BASIN SUBBASIN NAME ISO_TIME NATURE LAT LON WMO_WIND WMO_PRES WMO_AGENCY TRACK_TYPE DIST2LAND LANDFALL IFLAG USA_AGENCY USA_ATCF_ID USA_LAT USA_LON USA_RECORD USA_STATUS USA_WIND USA_PRES USA_SSHS USA_R34_NE USA_R34_SE USA_R34_SW USA_R34_NW USA_R50_NE USA_R50_SE USA_R50_SW USA_R50_NW USA_R64_NE USA_R64_SE USA_R64_SW USA_R64_NW USA_POCI USA_ROCI USA_RMW USA_EYE TOKYO_LAT TOKYO_LON TOKYO_GRADE TOKYO_WIND TOKYO_PRES TOKYO_R50_DIR TOKYO_R50_LONG TOKYO_R50_SHORT TOKYO_R30_DIR TOKYO_R30_LONG TOKYO_R30_SHORT TOKYO_LAND CMA_LAT CMA_LON CMA_CAT CMA_WIND CMA_PRES HKO_LAT HKO_LON HKO_CAT HKO_WIND HKO_PRES NEWDELHI_LAT NEWDELHI_LON NEWDELHI_GRADE NEWDELHI_WIND NEWDELHI_PRES NEWDELHI_CI NEWDELHI_DP NEWDELHI_POCI REUNION_LAT REUNION_LON REUNION_TYPE REUNION_WIND REUNION_PRES REUNION_TNUM REUNION_CI REUNION_RMW REUNION_R34_NE REUNION_R34_SE REUNION_R34_SW REUNION_R34_NW REUNION_R50_NE REUNION_R50_SE REUNION_R50_SW REUNION_R50_NW REUNION_R64_NE REUNION_R64_SE REUNION_R64_SW REUNION_R64_NW BOM_LAT BOM_LON BOM_TYPE BOM_WIND BOM_PRES BOM_TNUM BOM_CI BOM_RMW BOM_R34_NE BOM_R34_SE BOM_R34_SW BOM_R34_NW BOM_R50_NE BOM_R50_SE BOM_R50_SW BOM_R50_NW BOM_R64_NE BOM_R64_SE BOM_R64_SW BOM_R64_NW BOM_ROCI BOM_POCI BOM_EYE BOM_POS_METHOD BOM_PRES_METHOD NADI_LAT NADI_LON NADI_CAT NADI_WIND NADI_PRES WELLINGTON_LAT WELLINGTON_LON WELLINGTON_WIND WELLINGTON_PRES DS824_LAT DS824_LON DS824_STAGE DS824_WIND DS824_PRES TD9636_LAT TD9636_LON TD9636_STAGE TD9636_WIND TD9636_PRES TD9635_LAT TD9635_LON TD9635_WIND TD9635_PRES TD9635_ROCI NEUMANN_LAT NEUMANN_LON NEUMANN_CLASS NEUMANN_WIND NEUMANN_PRES MLC_LAT MLC_LON MLC_CLASS MLC_WIND MLC_PRES USA_GUST BOM_GUST BOM_GUST_PER REUNION_GUST REUNION_GUST_PER USA_SEAHGT USA_SEARAD_NE USA_SEARAD_SE USA_SEARAD_SW USA_SEARAD_NW STORM_SPEED STORM_DIR
1987253N11260 1987 75 EP MM MAX 1987-09-09 12:00:00 TS 11.3000 -100.000 25 hurdat_epa main 577 577 O_________O___ hurdat_epa EP131987 11.3000 -100.000 TD 25 -1 11.3000 -100.000 1 25 13 265
1987253N11260 1987 75 EP MM MAX 1987-09-09 15:00:00 TS 11.2484 -100.651 main 614 614 P_________P___ EP131987 11.2527 -100.638 TD 27 -1 11.2357 -100.691 1 27 13 265
1987253N11260 1987 75 EP MM MAX 1987-09-09 18:00:00 TS 11.1941 -101.319 30 hurdat_epa main 639 639 O_________P___ hurdat_epa EP131987 11.2000 -101.300 TD 30 -1 11.1764 -101.375 1 30 13 265
1987253N11260 1987 75 EP MM MAX 1987-09-09 21:00:00 TS 11.1391 -102.012 main 674 674 P_________P___ EP131987 11.1424 -102.000 TD 32 -1 11.1289 -102.047 1 32 14 266
1987253N11260 1987 75 EP MM MAX 1987-09-10 00:00:00 TS 11.1000 -102.700 35 hurdat_epa main 705 705 O_________O___ hurdat_epa EP131987 11.1000 -102.700 TS 35 0 11.1000 -102.700 2 35 13 268
1987253N11260 1987 75 EP MM MAX 1987-09-10 03:00:00 TS 11.0874 -103.362 main 737 737 P_________P___ EP131987 11.0849 -103.372 TS 40 0 11.0948 -103.330 2 37 13 270
1987253N11260 1987 75 EP MM MAX 1987-09-10 06:00:00 TS 11.1030 -103.984 45 hurdat_epa main 761 761 O_________P___ hurdat_epa EP131987 11.1000 -104.000 TS 45 0 11.1119 -103.937 2 40 12 273
1987253N11260 1987 75 EP MM MAX 1987-09-10 09:00:00 TS 11.1437 -104.550 main 784 780 P_________P___ EP131987 11.1423 -104.557 TS 45 0 11.1480 -104.527 2 42 11 275
1987253N11260 1987 75 EP MM MAX 1987-09-10 12:00:00 TS 11.2000 -105.100 45 hurdat_epa main 807 807 O_________O___ hurdat_epa EP131987 11.2000 -105.100 TS 45 0 11.2000 -105.100 2 45 11 275
1987253N11260 1987 75 EP MM MAX 1987-09-10 15:00:00 TS 11.2430 -105.697 main 828 821 P_________P___ EP131987 11.2425 -105.708 TS 47 0 11.2444 -105.664 2 48 12 275
1987253N11260 1987 75 EP MM MAX 1987-09-10 18:00:00 TS 11.3013 -106.278 50 hurdat_epa main 839 839 O_________P___ hurdat_epa EP131987 11.3000 -106.300 TS 50 0 11.3052 -106.214 2 52 11 278
1987253N11260 1987 75 EP MM MAX 1987-09-10 21:00:00 TS 11.3857 -106.795 main 849 849 P_________P___ EP131987 11.3848 -106.808 TS 55 0 11.3885 -106.757 2 56 10 281
1987253N11260 1987 75 EP MM MAX 1987-09-11 00:00:00 TS 11.5000 -107.300 60 hurdat_epa main 863 863 O_________O___ hurdat_epa EP131987 11.5000 -107.300 TS 60 0 11.5000 -107.300 2 60 11 283
1987253N11260 1987 75 EP MM MAX 1987-09-11 03:00:00 TS 11.6349 -107.860 main 886 876 P_________P___ EP131987 11.6350 -107.858 TS 62 0 11.6345 -107.866 2 62 11 286
1987253N11260 1987 75 EP MM MAX 1987-09-11 06:00:00 TS 11.8000 -108.400 65 hurdat_epa main 897 895 O_________O___ hurdat_epa EP131987 11.8000 -108.400 HU 65 1 11.8000 -108.400 3 65 11 290
1987253N11260 1987 75 EP MM MAX 1987-09-11 09:00:00 TS 11.9916 -108.870 main 912 910 P_________P___ EP131987 11.9924 -108.873 HU 67 1 11.9892 -108.862 3 67 10 294
1987253N11260 1987 75 EP MM MAX 1987-09-11 12:00:00 TS 12.2000 -109.300 70 hurdat_epa main 919 915 O_________O___ hurdat_epa EP131987 12.2000 -109.300 HU 70 1 12.2000 -109.300 4 70 9 297
1987253N11260 1987 75 EP MM MAX 1987-09-11 15:00:00 TS 12.3987 -109.698 main 924 920 P_________P___ EP131987 12.3923 -109.678 HU 75 1 12.4182 -109.760 4 75 9 297
1987253N11260 1987 75 EP MM MAX 1987-09-11 18:00:00 TS 12.6115 -110.135 80 hurdat_epa main 930 928 O_________P___ hurdat_epa EP131987 12.6000 -110.100 HU 80 1 12.6459 -110.239 4 80 11 295
1987253N11260 1987 75 EP MM MAX 1987-09-11 21:00:00 TS 12.8566 -110.718 main 945 945 P_________P___ EP131987 12.8503 -110.707 HU 85 2 12.8757 -110.748 4 85 12 293
1987253N11260 1987 75 EP MM MAX 1987-09-12 00:00:00 TS 13.1000 -111.300 90 hurdat_epa main 973 973 O_________O___ hurdat_epa EP131987 13.1000 -111.300 HU 90 2 13.1000 -111.300 4 90 10 296
1987253N11260 1987 75 EP MM MAX 1987-09-12 03:00:00 TS 13.3079 -111.680 main 988 988 P_________P___ EP131987 13.3067 -111.598 HU 95 2 13.3116 -111.927 4 93 9 296
1987253N11260 1987 75 EP MM MAX 1987-09-12 06:00:00 TS 13.5039 -112.148 100 hurdat_epa main 1003 1003 O_________P___ hurdat_epa EP131987 13.5000 -112.000 HU 100 3 13.5155 -112.593 4 97 14 287
1987253N11260 1987 75 EP MM MAX 1987-09-12 09:00:00 TS 13.7093 -113.005 main 1059 1059 P_________P___ EP131987 13.7085 -112.920 HU 102 3 13.7116 -113.262 4 101 18 283
1987253N11260 1987 75 EP MM MAX 1987-09-12 12:00:00 TS 13.9000 -113.900 105 hurdat_epa main 1087 1085 O_________O___ hurdat_epa EP131987 13.9000 -113.900 HU 105 3 13.9000 -113.900 4 105 15 283
1987253N11260 1987 75 EP MM MAX 1987-09-12 15:00:00 TS 14.0514 -114.510 main 1092 1092 P_________P___ EP131987 14.0494 -114.518 HU 110 3 14.0574 -114.486 4 110 11 286
1987253N11260 1987 75 EP MM MAX 1987-09-12 18:00:00 TS 14.2030 -115.008 115 hurdat_epa main 1106 1106 O_________P___ hurdat_epa EP131987 14.2000 -115.000 HU 115 4 14.2120 -115.033 4 115 10 289
1987253N11260 1987 75 EP MM MAX 1987-09-12 21:00:00 TS 14.3851 -115.527 main 1113 1113 P_________P___ EP131987 14.3849 -115.523 HU 120 4 14.3857 -115.539 4 120 10 292
1987253N11260 1987 75 EP MM MAX 1987-09-13 00:00:00 TS 14.6000 -116.000 125 hurdat_epa main 1122 1119 O_________O___ hurdat_epa EP131987 14.6000 -116.000 HU 125 4 14.6000 -116.000 4 125 10 297
1987253N11260 1987 75 EP MM MAX 1987-09-13 03:00:00 TS 14.8322 -116.426 main 1128 1120 P_________P___ EP131987 14.8199 -116.423 HU 130 4 14.8693 -116.434 4 127 9 304
1987253N11260 1987 75 EP MM MAX 1987-09-13 06:00:00 TS 15.1205 -116.806 135 hurdat_epa main 1127 1113 O_________P___ hurdat_epa EP131987 15.1000 -116.800 HU 135 4 15.1820 -116.825 4 130 10 313
1987253N11260 1987 75 EP MM MAX 1987-09-13 09:00:00 TS 15.4903 -117.168 main 1120 1109 P_________P___ EP131987 15.4774 -117.165 HU 135 4 15.5288 -117.178 4 132 10 319
1987253N11260 1987 75 EP MM MAX 1987-09-13 12:00:00 TS 15.9000 -117.500 135 hurdat_epa main 1109 1100 O_________O___ hurdat_epa EP131987 15.9000 -117.500 HU 135 4 15.9000 -117.500 4 135 10 322
1987253N11260 1987 75 EP MM MAX 1987-09-13 15:00:00 TS 16.2986 -117.817 main 1100 1090 P_________P___ EP131987 16.3000 -117.815 HU 135 4 16.2945 -117.824 4 135 10 324
1987253N11260 1987 75 EP MM MAX 1987-09-13 18:00:00 TS 16.7018 -118.104 135 hurdat_epa main 1090 1065 O_________P___ hurdat_epa EP131987 16.7000 -118.100 HU 135 4 16.7073 -118.117 4 135 10 327
1987253N11260 1987 75 EP MM MAX 1987-09-13 21:00:00 TS 17.1210 -118.368 main 1072 1049 P_________P___ EP131987 17.1225 -118.365 HU 135 4 17.1165 -118.377 4 135 9 329
1987253N11260 1987 75 EP MM MAX 1987-09-14 00:00:00 TS 17.5000 -118.600 135 hurdat_epa main 1049 1037 O_________O___ hurdat_epa EP131987 17.5000 -118.600 HU 135 4 17.5000 -118.600 4 135 8 327
1987253N11260 1987 75 EP MM MAX 1987-09-14 03:00:00 TS 17.7752 -118.811 main 1037 1027 P_________P___ EP131987 17.7575 -118.823 HU 125 4 17.8284 -118.775 4 127 6 326
1987253N11260 1987 75 EP MM MAX 1987-09-14 06:00:00 TS 18.0324 -118.979 115 hurdat_epa main 1034 1017 O_________P___ hurdat_epa EP131987 18.0000 -119.000 HU 115 4 18.1296 -118.916 4 120 6 336
1987253N11260 1987 75 EP MM MAX 1987-09-14 09:00:00 TS 18.3552 -119.088 main 1009 993 P_________P___ EP131987 18.3349 -119.100 HU 110 3 18.4160 -119.049 4 112 7 343
1987253N11260 1987 75 EP MM MAX 1987-09-14 12:00:00 TS 18.7000 -119.200 105 hurdat_epa main 993 977 O_________O___ hurdat_epa EP131987 18.7000 -119.200 HU 105 3 18.7000 -119.200 4 105 8 338
1987253N11260 1987 75 EP MM MAX 1987-09-14 15:00:00 TS 19.0518 -119.384 main 977 971 P_________P___ EP131987 19.0650 -119.377 HU 102 3 19.0122 -119.403 4 101 8 331
1987253N11260 1987 75 EP MM MAX 1987-09-14 18:00:00 TS 19.3806 -119.607 100 hurdat_epa main 971 971 O_________P___ hurdat_epa EP131987 19.4000 -119.600 HU 100 3 19.3225 -119.627 4 97 8 324
1987253N11260 1987 75 EP MM MAX 1987-09-14 21:00:00 TS 19.6542 -119.853 main 975 975 P_________P___ EP131987 19.6650 -119.850 HU 95 2 19.6216 -119.863 4 93 7 318
1987253N11260 1987 75 EP MM MAX 1987-09-15 00:00:00 TS 19.9000 -120.100 90 hurdat_epa main 979 972 O_________O___ hurdat_epa EP131987 19.9000 -120.100 HU 90 2 19.9000 -120.100 4 90 7 320
1987253N11260 1987 75 EP MM MAX 1987-09-15 03:00:00 TS 20.1556 -120.300 main 977 977 P_________P___ EP131987 20.1574 -120.300 HU 82 1 20.1503 -120.301 4 83 6 323
1987253N11260 1987 75 EP MM MAX 1987-09-15 06:00:00 TS 20.3949 -120.501 75 hurdat_epa main 980 976 O_________P___ hurdat_epa EP131987 20.4000 -120.500 HU 75 1 20.3794 -120.506 4 77 6 318
1987253N11260 1987 75 EP MM MAX 1987-09-15 09:00:00 TS 20.5984 -120.729 main 976 972 P_________P___ EP131987 20.5999 -120.728 HU 70 1 20.5939 -120.732 4 71 6 311
1987253N11260 1987 75 EP MM MAX 1987-09-15 12:00:00 TS 20.8000 -121.000 65 hurdat_epa main 979 976 O_________O___ hurdat_epa EP131987 20.8000 -121.000 HU 65 1 20.8000 -121.000 4 65 7 309
1987253N11260 1987 75 EP MM MAX 1987-09-15 15:00:00 TS 21.0511 -121.335 main 974 974 P_________P___ EP131987 21.0575 -121.327 HU 55 0 21.0320 -121.356 4 57 8 306
1987253N11260 1987 75 EP MM MAX 1987-09-15 18:00:00 TS 21.2883 -121.712 45 hurdat_epa main 984 983 O_________P___ hurdat_epa EP131987 21.3000 -121.700 TS 45 0 21.2532 -121.749 4 50 8 300
1987253N11260 1987 75 EP MM MAX 1987-09-15 21:00:00 TS 21.4720 -122.116 main 996 996 P_________P___ EP131987 21.4801 -122.108 TS 40 0 21.4477 -122.143 4 42 8 293
1987253N11260 1987 75 EP MM MAX 1987-09-16 00:00:00 TS 21.6000 -122.500 35 hurdat_epa main 1018 1018 O_________O___ hurdat_epa EP131987 21.6000 -122.500 TS 35 0 21.6000 -122.500 2 35 7 287
1987253N11260 1987 75 EP MM MAX 1987-09-16 03:00:00 TS 21.6737 -122.826 main 1033 1033 P_________P___ EP131987 21.6650 -122.838 TS 32 -1 21.6999 -122.791 2 32 6 282
1987253N11260 1987 75 EP MM MAX 1987-09-16 06:00:00 TS 21.7143 -123.081 30 hurdat_epa main 1056 1056 O_________P___ hurdat_epa EP131987 21.7000 -123.100 TD 30 -1 21.7571 -123.026 2 30 4 281
1987253N11260 1987 75 EP MM MAX 1987-09-16 09:00:00 TS 21.7552 -123.262 main 1065 1065 P_________P___ EP131987 21.7450 -123.275 TD 27 -1 21.7857 -123.222 2 27 3 286
1987253N11260 1987 75 EP MM MAX 1987-09-16 12:00:00 TS 21.8000 -123.400 25 hurdat_epa main 1073 O_________O___ hurdat_epa EP131987 21.8000 -123.400 TD 25 -1 21.8000 -123.400 1 25 3 289

IBTrACS Databaseについて

本データベースは、米国NOAAが公開する1842年以降の世界の熱帯低気圧のベストトラックデータアーカイブInternational Best Track Archive for Climate Stewardship (IBTrACS)を、ウェブで閲覧しやすい形式に変換したものです。

最終更新日:2021-10-19